createdAt,value
2019-05-26T00:01:48.169Z,12.50
2019-05-26T00:04:22.082Z,12.50
2019-05-26T00:06:55.783Z,12.50
2019-05-26T00:09:29.636Z,12.50
2019-05-26T00:12:03.305Z,12.50
2019-05-26T00:14:37.052Z,12.50
2019-05-26T00:17:11.132Z,12.50
2019-05-26T00:19:44.984Z,12.50
2019-05-26T00:22:19.065Z,12.50
2019-05-26T00:24:52.864Z,12.50
2019-05-26T00:27:26.748Z,12.50
2019-05-26T00:30:00.480Z,12.50
2019-05-26T00:32:34.388Z,12.50
2019-05-26T00:35:08.771Z,12.50
2019-05-26T00:37:50.694Z,12.50
2019-05-26T00:40:18.370Z,12.40
2019-05-26T00:42:52.441Z,12.50
2019-05-26T00:45:26.467Z,12.40
2019-05-26T00:48:00.367Z,12.40
2019-05-26T00:50:34.304Z,12.40
2019-05-26T00:53:08.220Z,12.40
2019-05-26T00:55:42.185Z,12.40
2019-05-26T00:58:16.216Z,12.40
2019-05-26T01:00:50.091Z,12.40
2019-05-26T01:03:24.059Z,12.50
2019-05-26T01:05:57.990Z,12.50
2019-05-26T01:08:31.764Z,12.50
2019-05-26T01:11:06.159Z,12.50
2019-05-26T01:13:40.087Z,12.50
2019-05-26T01:16:13.820Z,12.50
2019-05-26T01:18:47.661Z,12.50
2019-05-26T01:21:21.257Z,12.50
2019-05-26T01:23:54.938Z,12.50
2019-05-26T01:26:28.883Z,12.50
2019-05-26T01:29:02.580Z,12.40
2019-05-26T01:31:36.301Z,12.40
2019-05-26T01:34:10.144Z,12.40
2019-05-26T01:36:43.974Z,12.40
2019-05-26T01:39:17.998Z,12.40
2019-05-26T01:41:51.818Z,12.30
2019-05-26T01:44:25.662Z,12.30
2019-05-26T01:46:59.396Z,12.30
2019-05-26T01:49:33.165Z,12.30
2019-05-26T01:52:06.846Z,12.30
2019-05-26T01:54:41.142Z,12.30
2019-05-26T01:57:15.029Z,12.40
2019-05-26T01:59:48.899Z,12.40
2019-05-26T02:02:22.730Z,12.40
2019-05-26T02:04:56.528Z,12.40
2019-05-26T02:07:30.245Z,12.40
2019-05-26T02:10:05.285Z,12.40
2019-05-26T02:12:39.062Z,12.50
2019-05-26T02:15:13.402Z,12.50
2019-05-26T02:17:47.138Z,12.60
2019-05-26T02:20:21.563Z,12.60
2019-05-26T02:22:55.326Z,12.60
2019-05-26T02:25:28.938Z,12.60
2019-05-26T02:28:02.583Z,12.70
2019-05-26T02:30:36.403Z,12.70
2019-05-26T02:33:10.129Z,12.70
2019-05-26T02:35:44.013Z,12.80
2019-05-26T02:38:17.880Z,12.80
2019-05-26T02:40:51.720Z,12.80
2019-05-26T02:43:25.546Z,12.80
2019-05-26T02:45:59.377Z,12.90
2019-05-26T02:48:33.205Z,12.90
2019-05-26T02:51:07.033Z,12.90
2019-05-26T02:53:40.853Z,13.00
2019-05-26T02:56:14.632Z,13.00
2019-05-26T02:58:48.658Z,13.00
2019-05-26T03:01:23.563Z,13.00
2019-05-26T03:03:57.402Z,13.00
2019-05-26T03:06:32.902Z,13.00
2019-05-26T03:09:22.095Z,13.10
2019-05-26T03:11:45.876Z,13.10
2019-05-26T03:14:20.810Z,13.10
2019-05-26T03:16:57.554Z,13.10
2019-05-26T03:19:33.739Z,13.10
2019-05-26T03:22:07.521Z,13.10
2019-05-26T03:24:44.213Z,13.20
2019-05-26T03:27:18.209Z,13.20
2019-05-26T03:29:51.881Z,13.20
2019-05-26T03:32:25.929Z,13.20
2019-05-26T03:34:59.643Z,13.30
2019-05-26T03:37:33.924Z,13.20
2019-05-26T03:40:09.561Z,13.30
2019-05-26T03:42:43.424Z,13.30
2019-05-26T03:45:24.654Z,13.30
2019-05-26T03:47:58.337Z,13.30
2019-05-26T03:50:32.141Z,13.30
2019-05-26T03:53:06.055Z,13.40
2019-05-26T03:55:39.773Z,13.40
2019-05-26T03:58:13.487Z,13.40
2019-05-26T04:00:47.287Z,13.50
2019-05-26T04:03:21.024Z,13.50
2019-05-26T04:05:54.801Z,13.50
2019-05-26T04:08:28.549Z,13.60
2019-05-26T04:11:02.269Z,13.60
2019-05-26T04:13:36.006Z,13.70
2019-05-26T04:16:09.726Z,13.80
2019-05-26T04:18:43.480Z,13.80
2019-05-26T04:21:17.359Z,13.90
2019-05-26T04:23:51.151Z,13.90
2019-05-26T04:26:24.961Z,13.90
2019-05-26T04:28:58.725Z,14.00
2019-05-26T04:31:32.604Z,14.10
2019-05-26T04:34:06.558Z,14.10
2019-05-26T04:36:40.284Z,14.10
2019-05-26T04:39:14.047Z,14.20
2019-05-26T04:41:47.769Z,14.20
2019-05-26T04:44:21.589Z,14.20
2019-05-26T04:46:55.384Z,14.30
2019-05-26T04:49:29.111Z,14.30
2019-05-26T04:52:02.853Z,14.40
2019-05-26T04:54:36.534Z,14.40
2019-05-26T04:57:10.411Z,14.50
2019-05-26T04:59:44.086Z,14.50
2019-05-26T05:02:18.834Z,14.60
2019-05-26T05:04:52.515Z,14.60
2019-05-26T05:07:28.554Z,14.70
2019-05-26T05:10:01.590Z,14.80
2019-05-26T05:12:35.272Z,14.80
2019-05-26T05:15:09.820Z,14.90
2019-05-26T05:17:43.543Z,14.90
2019-05-26T05:20:17.346Z,15.00
2019-05-26T05:22:51.043Z,15.00
2019-05-26T05:25:25.031Z,15.10
2019-05-26T05:27:58.877Z,15.10
2019-05-26T05:30:32.748Z,15.20
2019-05-26T05:33:06.589Z,15.20
2019-05-26T05:35:40.682Z,15.30
2019-05-26T05:38:14.431Z,15.30
2019-05-26T05:40:58.872Z,15.40
2019-05-26T05:43:23.683Z,15.40
2019-05-26T05:45:57.506Z,15.40
2019-05-26T05:48:31.344Z,15.50
2019-05-26T05:51:05.089Z,15.50
2019-05-26T05:53:38.809Z,15.50
2019-05-26T05:56:12.536Z,15.60
2019-05-26T05:58:46.431Z,15.60
2019-05-26T06:01:20.373Z,15.60
2019-05-26T06:03:54.082Z,15.70
2019-05-26T06:06:27.798Z,15.70
2019-05-26T06:09:01.613Z,15.70
2019-05-26T06:11:35.359Z,15.70
2019-05-26T06:14:09.046Z,15.80
2019-05-26T06:16:43.000Z,15.70
2019-05-26T06:19:16.852Z,15.80
2019-05-26T06:21:50.463Z,15.80
2019-05-26T06:24:24.068Z,15.90
2019-05-26T06:26:57.897Z,15.90
2019-05-26T06:29:31.641Z,16.00
2019-05-26T06:32:05.495Z,16.00
2019-05-26T06:34:39.812Z,16.10
2019-05-26T06:37:13.660Z,16.20
2019-05-26T06:39:47.439Z,16.20
2019-05-26T06:42:21.196Z,16.20
2019-05-26T06:44:54.847Z,16.30
2019-05-26T06:47:28.580Z,16.40
2019-05-26T06:50:02.452Z,16.50
2019-05-26T06:52:36.164Z,16.50
2019-05-26T06:55:10.356Z,16.50
2019-05-26T06:57:44.451Z,16.60
2019-05-26T07:00:18.381Z,16.60
2019-05-26T07:02:52.109Z,16.70
2019-05-26T07:05:25.894Z,16.80
2019-05-26T07:07:59.577Z,16.80
2019-05-26T07:10:33.252Z,17.00
2019-05-26T07:13:07.178Z,17.00
2019-05-26T07:15:40.949Z,17.00
2019-05-26T07:18:14.692Z,17.00
2019-05-26T07:20:48.628Z,17.10
2019-05-26T07:23:22.327Z,17.20
2019-05-26T07:25:55.986Z,17.20
2019-05-26T07:28:29.711Z,17.30
2019-05-26T07:31:03.597Z,17.40
2019-05-26T07:33:37.252Z,17.50
2019-05-26T07:36:10.935Z,17.50
2019-05-26T07:38:44.715Z,17.60
2019-05-26T07:41:18.499Z,17.70
2019-05-26T07:43:52.142Z,17.70
2019-05-26T07:46:25.961Z,17.70
2019-05-26T07:48:59.621Z,17.70
2019-05-26T07:51:33.416Z,17.80
2019-05-26T07:54:07.202Z,17.80
2019-05-26T07:56:41.122Z,17.80
2019-05-26T07:59:14.856Z,17.90
2019-05-26T08:01:48.598Z,17.90
2019-05-26T08:04:22.583Z,17.90
2019-05-26T08:06:56.411Z,17.90
2019-05-26T08:09:30.225Z,17.90
2019-05-26T08:12:04.150Z,17.90
2019-05-26T08:14:37.887Z,18.00
2019-05-26T08:17:11.531Z,18.00
2019-05-26T08:19:45.275Z,18.00
2019-05-26T08:22:20.313Z,18.10
2019-05-26T08:24:54.119Z,18.10
2019-05-26T08:27:27.732Z,18.20
2019-05-26T08:30:01.604Z,18.30
2019-05-26T08:32:35.517Z,18.30
2019-05-26T08:35:09.341Z,18.40
2019-05-26T08:37:43.107Z,18.50
2019-05-26T08:40:16.877Z,18.60
2019-05-26T08:42:51.287Z,18.60
2019-05-26T08:45:25.139Z,18.70
2019-05-26T08:47:59.578Z,18.80
2019-05-26T08:50:34.434Z,18.90
2019-05-26T08:53:08.680Z,19.10
2019-05-26T08:55:42.374Z,19.20
2019-05-26T08:58:16.100Z,19.30
2019-05-26T09:00:49.810Z,19.40
2019-05-26T09:03:29.568Z,19.50
2019-05-26T09:06:03.318Z,19.70
2019-05-26T09:08:37.029Z,19.70
2019-05-26T09:11:10.884Z,19.80
2019-05-26T09:13:44.655Z,19.90
2019-05-26T09:16:18.382Z,20.00
2019-05-26T09:18:52.069Z,20.00
2019-05-26T09:21:25.905Z,20.10
2019-05-26T09:23:59.581Z,20.20
2019-05-26T09:26:33.276Z,20.30
2019-05-26T09:29:06.940Z,20.50
2019-05-26T09:31:40.704Z,20.60
2019-05-26T09:34:14.441Z,20.80
2019-05-26T09:36:48.100Z,20.90
2019-05-26T09:39:21.763Z,21.00
2019-05-26T09:41:55.522Z,21.00
2019-05-26T09:44:29.285Z,21.10
2019-05-26T09:47:03.010Z,21.10
2019-05-26T09:49:36.644Z,21.10
2019-05-26T09:52:10.429Z,21.10
2019-05-26T09:54:44.086Z,21.10
2019-05-26T09:57:17.879Z,21.10
2019-05-26T09:59:51.543Z,21.10
2019-05-26T10:02:25.277Z,21.20
2019-05-26T10:04:58.900Z,21.20
2019-05-26T10:07:32.594Z,21.30
2019-05-26T10:10:08.182Z,21.50
2019-05-26T10:12:42.158Z,21.60
2019-05-26T10:15:16.262Z,21.80
2019-05-26T10:17:49.949Z,22.00
2019-05-26T10:20:23.588Z,22.10
2019-05-26T10:22:57.320Z,22.20
2019-05-26T10:25:31.231Z,22.30
2019-05-26T10:28:05.119Z,22.50
2019-05-26T10:30:38.862Z,22.60
2019-05-26T10:33:12.596Z,22.70
2019-05-26T10:35:46.501Z,22.80
2019-05-26T10:38:20.165Z,22.90
2019-05-26T10:40:53.812Z,23.00
2019-05-26T10:43:27.610Z,23.00
2019-05-26T10:46:01.241Z,23.00
2019-05-26T10:48:35.023Z,23.10
2019-05-26T10:51:08.800Z,23.10
2019-05-26T10:53:42.418Z,23.10
2019-05-26T10:56:16.232Z,23.20
2019-05-26T10:58:49.860Z,23.20
2019-05-26T11:01:23.542Z,23.20
2019-05-26T11:03:57.245Z,23.30
2019-05-26T11:06:31.288Z,23.40
2019-05-26T11:09:07.524Z,23.50
2019-05-26T11:11:41.369Z,23.50
2019-05-26T11:14:15.091Z,23.60
2019-05-26T11:16:48.800Z,23.60
2019-05-26T11:19:22.573Z,23.60
2019-05-26T11:21:56.298Z,23.70
2019-05-26T11:24:29.937Z,23.70
2019-05-26T11:27:09.503Z,23.70
2019-05-26T11:29:39.254Z,23.70
2019-05-26T11:32:13.073Z,23.80
2019-05-26T11:35:00.582Z,23.80
2019-05-26T11:37:22.110Z,23.90
2019-05-26T11:39:55.754Z,24.00
2019-05-26T11:42:29.710Z,24.10
2019-05-26T11:45:04.045Z,24.10
2019-05-26T11:47:37.926Z,24.10
2019-05-26T11:50:12.036Z,24.20
2019-05-26T11:52:45.890Z,24.20
2019-05-26T11:55:19.648Z,24.20
2019-05-26T11:57:53.634Z,24.20
2019-05-26T12:00:28.319Z,24.20
2019-05-26T12:03:02.183Z,24.20
2019-05-26T12:05:35.799Z,24.20
2019-05-26T12:08:09.529Z,24.20
2019-05-26T12:10:43.410Z,24.30
2019-05-26T12:13:17.210Z,24.20
2019-05-26T12:15:51.200Z,24.20
2019-05-26T12:18:24.852Z,24.10
2019-05-26T12:20:58.548Z,24.10
2019-05-26T12:23:32.211Z,24.10
2019-05-26T12:26:06.006Z,24.20
2019-05-26T12:28:39.709Z,24.20
2019-05-26T12:31:13.603Z,24.30
2019-05-26T12:33:47.439Z,24.30
2019-05-26T12:36:21.231Z,24.30
2019-05-26T12:38:55.009Z,24.30
2019-05-26T12:41:28.745Z,24.30
2019-05-26T12:44:02.396Z,24.30
2019-05-26T12:46:36.140Z,24.20
2019-05-26T12:49:09.962Z,24.20
2019-05-26T12:51:43.756Z,24.10
2019-05-26T12:54:17.390Z,24.10
2019-05-26T12:56:51.165Z,24.10
2019-05-26T12:59:24.957Z,24.10
2019-05-26T13:01:58.774Z,24.10
2019-05-26T13:04:32.444Z,24.10
2019-05-26T13:07:06.407Z,24.10
2019-05-26T13:09:40.597Z,24.10
2019-05-26T13:12:14.404Z,24.10
2019-05-26T13:14:48.238Z,24.20
2019-05-26T13:17:22.150Z,24.20
2019-05-26T13:19:55.988Z,24.20
2019-05-26T13:22:29.642Z,24.20
2019-05-26T13:25:03.999Z,24.20
2019-05-26T13:27:37.711Z,24.20
2019-05-26T13:30:12.514Z,24.10
2019-05-26T13:32:46.509Z,24.10
2019-05-26T13:35:20.387Z,24.10
2019-05-26T13:37:55.408Z,24.20
2019-05-26T13:40:29.756Z,24.20
2019-05-26T13:43:03.775Z,24.30
2019-05-26T13:45:37.519Z,24.30
2019-05-26T13:48:11.279Z,24.40
2019-05-26T13:50:44.934Z,24.50
2019-05-26T13:53:18.705Z,24.50
2019-05-26T13:55:52.504Z,24.60
2019-05-26T13:58:26.276Z,24.60
2019-05-26T14:01:00.071Z,24.60
2019-05-26T14:03:34.018Z,24.60
2019-05-26T14:06:07.789Z,24.60
2019-05-26T14:08:41.430Z,24.70
2019-05-26T14:11:15.193Z,24.70
2019-05-26T14:13:48.954Z,24.70
2019-05-26T14:16:23.292Z,24.70
2019-05-26T14:18:58.021Z,24.80
2019-05-26T14:21:31.746Z,24.70
2019-05-26T14:24:05.503Z,24.70
2019-05-26T14:26:39.327Z,24.70
2019-05-26T14:29:13.147Z,24.70
2019-05-26T14:31:48.027Z,24.60
2019-05-26T14:34:23.110Z,24.60
2019-05-26T14:36:56.856Z,24.60
2019-05-26T14:39:30.489Z,24.50
2019-05-26T14:42:04.310Z,24.40
2019-05-26T14:44:37.989Z,24.30
2019-05-26T14:47:11.666Z,24.20
2019-05-26T14:49:45.312Z,24.10
2019-05-26T14:52:19.171Z,24.10
2019-05-26T14:54:52.917Z,24.00
2019-05-26T14:57:26.717Z,23.90
2019-05-26T15:00:00.395Z,23.90
2019-05-26T15:02:34.099Z,23.80
2019-05-26T15:05:08.777Z,23.70
2019-05-26T15:07:42.454Z,23.60
2019-05-26T15:10:16.503Z,23.50
2019-05-26T15:12:50.305Z,23.40
2019-05-26T15:15:23.914Z,23.30
2019-05-26T15:17:57.696Z,23.10
2019-05-26T15:20:31.374Z,23.00
2019-05-26T15:23:05.164Z,22.80
2019-05-26T15:25:38.873Z,22.70
2019-05-26T15:28:12.780Z,22.60
2019-05-26T15:30:46.385Z,22.50
2019-05-26T15:33:21.924Z,22.40
2019-05-26T15:35:55.798Z,22.30
2019-05-26T15:38:41.971Z,22.20
2019-05-26T15:41:04.936Z,22.10
2019-05-26T15:43:38.902Z,22.00
2019-05-26T15:46:24.095Z,21.90
2019-05-26T15:48:47.858Z,21.80
2019-05-26T15:51:21.516Z,21.60
2019-05-26T15:53:55.256Z,21.50
2019-05-26T15:56:30.696Z,21.40
2019-05-26T15:59:04.552Z,21.30
2019-05-26T16:01:38.245Z,21.20
2019-05-26T16:04:12.050Z,21.10
2019-05-26T16:06:48.225Z,21.00
2019-05-26T16:09:21.980Z,20.80
2019-05-26T16:11:55.576Z,20.70
2019-05-26T16:14:29.280Z,20.60
2019-05-26T16:17:02.948Z,20.60
2019-05-26T16:19:36.668Z,20.50
2019-05-26T16:22:10.434Z,20.40
2019-05-26T16:24:44.153Z,20.40
2019-05-26T16:27:19.473Z,20.40
2019-05-26T16:29:53.322Z,20.30
2019-05-26T16:32:27.096Z,20.20
2019-05-26T16:35:00.769Z,20.20
2019-05-26T16:37:34.480Z,20.20
2019-05-26T16:40:08.317Z,20.10
2019-05-26T16:42:42.082Z,20.10
2019-05-26T16:45:16.773Z,20.10
2019-05-26T16:47:50.543Z,20.10
2019-05-26T16:50:24.242Z,20.10
2019-05-26T16:52:57.930Z,20.10
2019-05-26T16:55:31.530Z,20.00
2019-05-26T16:58:06.819Z,20.00
2019-05-26T17:00:40.693Z,20.00
2019-05-26T17:03:14.342Z,20.10
2019-05-26T17:05:48.346Z,20.00
2019-05-26T17:08:22.057Z,20.00
2019-05-26T17:10:56.172Z,20.00
2019-05-26T17:13:32.831Z,20.00
2019-05-26T17:16:05.642Z,20.00
2019-05-26T17:18:39.312Z,19.90
2019-05-26T17:21:13.140Z,19.90
2019-05-26T17:23:46.881Z,19.90
2019-05-26T17:26:20.621Z,19.80
2019-05-26T17:28:54.402Z,19.80
2019-05-26T17:31:28.117Z,19.80
2019-05-26T17:34:01.950Z,19.80
2019-05-26T17:36:35.673Z,19.80
2019-05-26T17:39:09.555Z,19.80
2019-05-26T17:41:43.286Z,19.70
2019-05-26T17:44:18.219Z,19.70
2019-05-26T17:46:52.119Z,19.60
2019-05-26T17:49:25.978Z,19.60
2019-05-26T17:51:59.778Z,19.60
2019-05-26T17:54:33.435Z,19.60
2019-05-26T17:57:10.220Z,19.50
2019-05-26T17:59:43.950Z,19.50
2019-05-26T18:02:17.521Z,19.40
2019-05-26T18:04:51.200Z,19.40
2019-05-26T18:07:25.014Z,19.40
2019-05-26T18:09:58.790Z,19.40
2019-05-26T18:12:32.523Z,19.30
2019-05-26T18:15:07.422Z,19.30
2019-05-26T18:17:47.136Z,19.30
2019-05-26T18:20:16.653Z,19.30
2019-05-26T18:22:50.426Z,19.30
2019-05-26T18:25:24.759Z,19.30
2019-05-26T18:27:58.601Z,19.30
2019-05-26T18:30:32.592Z,19.30
2019-05-26T18:33:06.281Z,19.30
2019-05-26T18:35:40.221Z,19.20
2019-05-26T18:38:14.023Z,19.20
2019-05-26T18:40:48.323Z,19.20
2019-05-26T18:43:22.291Z,19.20
2019-05-26T18:45:56.117Z,19.10
2019-05-26T18:48:29.970Z,19.10
2019-05-26T18:51:03.956Z,19.10
2019-05-26T18:53:39.088Z,19.10
2019-05-26T18:56:12.840Z,19.10
2019-05-26T18:58:46.567Z,19.00
2019-05-26T19:01:22.569Z,19.00
2019-05-26T19:03:56.280Z,19.00
2019-05-26T19:06:30.627Z,18.90
2019-05-26T19:09:07.048Z,18.90
2019-05-26T19:11:40.844Z,18.90
2019-05-26T19:14:14.770Z,18.80
2019-05-26T19:16:49.060Z,18.80
2019-05-26T19:19:23.952Z,18.70
2019-05-26T19:21:58.017Z,18.70
2019-05-26T19:24:35.589Z,18.60
2019-05-26T19:27:11.121Z,18.50
2019-05-26T19:29:46.447Z,18.40
2019-05-26T19:32:20.326Z,18.40
2019-05-26T19:34:54.286Z,18.30
2019-05-26T19:37:28.765Z,18.20
2019-05-26T19:40:02.700Z,18.20
2019-05-26T19:42:36.538Z,18.10
2019-05-26T19:45:10.469Z,18.00
2019-05-26T19:47:44.024Z,17.90
2019-05-26T19:50:18.124Z,17.90
2019-05-26T19:52:51.967Z,17.80
2019-05-26T19:55:28.875Z,17.80
2019-05-26T19:58:04.734Z,17.80
2019-05-26T20:00:38.897Z,17.80
2019-05-26T20:03:13.195Z,17.70
2019-05-26T20:05:47.196Z,17.70
2019-05-26T20:08:21.401Z,17.70
2019-05-26T20:10:55.166Z,17.70
2019-05-26T20:13:28.973Z,17.60
2019-05-26T20:16:02.694Z,17.70
2019-05-26T20:18:36.574Z,17.60
2019-05-26T20:21:10.356Z,17.60
2019-05-26T20:23:44.282Z,17.60
2019-05-26T20:26:18.092Z,17.60
2019-05-26T20:28:54.050Z,17.50
2019-05-26T20:31:27.732Z,17.50
2019-05-26T20:34:01.342Z,17.50
2019-05-26T20:36:35.104Z,17.50
2019-05-26T20:39:09.962Z,17.50
2019-05-26T20:41:44.092Z,17.40
2019-05-26T20:44:17.957Z,17.40
2019-05-26T20:46:51.828Z,17.40
2019-05-26T20:49:25.910Z,17.40
2019-05-26T20:52:00.036Z,17.40
2019-05-26T20:54:33.799Z,17.30
2019-05-26T20:57:07.821Z,17.30
2019-05-26T20:59:41.415Z,17.30
2019-05-26T21:02:15.318Z,17.30
2019-05-26T21:04:48.977Z,17.30
2019-05-26T21:07:22.693Z,17.30
2019-05-26T21:09:56.347Z,17.30
2019-05-26T21:12:30.201Z,17.30
2019-05-26T21:15:04.612Z,17.30
2019-05-26T21:17:38.284Z,17.30
2019-05-26T21:20:12.528Z,17.30
2019-05-26T21:22:46.372Z,17.20
2019-05-26T21:25:20.039Z,17.30
2019-05-26T21:27:53.725Z,17.30
2019-05-26T21:30:27.459Z,17.20
2019-05-26T21:33:01.171Z,17.20
2019-05-26T21:35:34.851Z,17.20
2019-05-26T21:38:08.523Z,17.20
2019-05-26T21:40:42.218Z,17.20
2019-05-26T21:43:15.926Z,17.20
2019-05-26T21:45:49.583Z,17.20
2019-05-26T21:48:23.289Z,17.20
2019-05-26T21:50:57.253Z,17.20
2019-05-26T21:53:31.176Z,17.20
2019-05-26T21:56:05.195Z,17.20
2019-05-26T21:58:38.880Z,17.20
2019-05-26T22:01:12.692Z,17.20
2019-05-26T22:03:46.438Z,17.10
2019-05-26T22:06:20.338Z,17.20
2019-05-26T22:08:54.193Z,17.10
2019-05-26T22:11:28.064Z,17.20
2019-05-26T22:14:01.873Z,17.10
2019-05-26T22:16:35.613Z,17.10
2019-05-26T22:19:09.475Z,17.20
2019-05-26T22:21:43.284Z,17.10
2019-05-26T22:24:17.052Z,17.10
2019-05-26T22:26:50.845Z,17.10
2019-05-26T22:29:24.660Z,17.20
2019-05-26T22:31:58.509Z,17.20
2019-05-26T22:34:32.106Z,17.10
2019-05-26T22:37:06.064Z,17.10
2019-05-26T22:39:39.899Z,17.10
2019-05-26T22:42:13.840Z,17.20
2019-05-26T22:44:47.746Z,17.10
2019-05-26T22:47:21.596Z,17.10
2019-05-26T22:49:55.322Z,17.20
2019-05-26T22:52:29.097Z,17.10
2019-05-26T22:55:03.131Z,17.10
2019-05-26T22:57:36.976Z,17.20
2019-05-26T23:00:11.814Z,17.20
2019-05-26T23:02:45.912Z,17.20
2019-05-26T23:05:19.994Z,17.10
2019-05-26T23:07:53.752Z,17.20
2019-05-26T23:10:27.502Z,17.20
2019-05-26T23:13:01.524Z,17.10
2019-05-26T23:15:35.323Z,17.20
2019-05-26T23:18:09.248Z,17.10
2019-05-26T23:20:43.030Z,17.20
2019-05-26T23:23:16.817Z,17.20
2019-05-26T23:25:50.508Z,17.20
2019-05-26T23:28:24.332Z,17.20
2019-05-26T23:30:57.979Z,17.20
2019-05-26T23:33:31.765Z,17.20
2019-05-26T23:36:05.383Z,17.20
2019-05-26T23:38:39.271Z,17.20
2019-05-26T23:41:12.976Z,17.20
2019-05-26T23:43:46.800Z,17.20
2019-05-26T23:46:20.515Z,17.10
2019-05-26T23:48:54.209Z,17.10
2019-05-26T23:51:27.987Z,17.10
2019-05-26T23:54:01.724Z,17.10
2019-05-26T23:56:35.980Z,17.10
2019-05-26T23:59:10.144Z,17.10
